createdAt,value
2022-12-18T00:02:39.482Z,30.77
2022-12-18T00:05:25.872Z,28.08
2022-12-18T00:08:11.471Z,30.33
2022-12-18T00:11:03.883Z,27.55
2022-12-18T00:13:54.326Z,27.55
2022-12-18T00:16:40.330Z,27.00
2022-12-18T00:19:26.123Z,26.10
2022-12-18T00:22:11.830Z,25.35
2022-12-18T00:24:57.363Z,25.58
2022-12-18T00:27:42.691Z,26.63
2022-12-18T00:30:28.374Z,27.05
2022-12-18T00:33:14.150Z,25.42
2022-12-18T00:36:20.491Z,26.02
2022-12-18T00:39:06.786Z,25.75
2022-12-18T00:42:10.519Z,23.35
2022-12-18T00:44:55.784Z,25.48
2022-12-18T00:47:41.488Z,25.70
2022-12-18T00:50:27.158Z,26.02
2022-12-18T00:53:12.802Z,24.63
2022-12-18T00:55:58.399Z,22.35
2022-12-18T00:58:43.686Z,24.20
2022-12-18T01:01:29.866Z,24.35
2022-12-18T01:04:15.362Z,25.77
2022-12-18T01:07:03.958Z,24.83
2022-12-18T01:09:50.635Z,25.02
2022-12-18T01:12:36.184Z,25.02
2022-12-18T01:15:21.931Z,28.92
2022-12-18T01:18:07.849Z,24.80
2022-12-18T01:20:53.156Z,23.70
2022-12-18T01:23:39.389Z,22.58
2022-12-18T01:26:26.616Z,22.33
2022-12-18T01:29:11.909Z,21.35
2022-12-18T01:31:57.756Z,22.98
2022-12-18T01:34:43.048Z,22.83
2022-12-18T01:37:28.674Z,24.15
2022-12-18T01:40:14.190Z,24.15
2022-12-18T01:42:59.809Z,23.27
2022-12-18T01:45:45.444Z,21.48
2022-12-18T01:48:30.731Z,20.45
2022-12-18T01:51:17.944Z,22.90
2022-12-18T01:54:03.129Z,22.20
2022-12-18T01:56:48.597Z,21.38
2022-12-18T01:59:36.359Z,23.05
2022-12-18T02:02:22.194Z,22.38
2022-12-18T02:05:08.555Z,22.30
2022-12-18T02:08:13.335Z,23.17
2022-12-18T02:11:19.351Z,22.25
2022-12-18T02:14:26.575Z,20.60
2022-12-18T02:17:22.091Z,20.83
2022-12-18T02:20:20.887Z,22.00
2022-12-18T02:23:39.498Z,21.23
2022-12-18T02:26:35.526Z,21.98
2022-12-18T02:29:29.067Z,21.25
2022-12-18T02:32:18.868Z,21.85
2022-12-18T02:35:07.071Z,23.13
2022-12-18T02:37:57.367Z,25.17
2022-12-18T02:40:44.217Z,25.73
2022-12-18T02:43:35.526Z,27.20
2022-12-18T02:46:34.576Z,25.33
2022-12-18T02:49:41.041Z,23.33
2022-12-18T02:52:43.345Z,24.83
2022-12-18T02:55:55.532Z,22.48
2022-12-18T02:58:57.270Z,21.77
2022-12-18T03:02:02.677Z,20.58
2022-12-18T03:05:01.117Z,21.70
2022-12-18T03:08:00.503Z,19.98
2022-12-18T03:11:15.848Z,20.13
2022-12-18T03:14:03.809Z,21.40
2022-12-18T03:16:53.112Z,22.25
2022-12-18T03:19:40.182Z,23.95
2022-12-18T03:22:31.059Z,21.10
2022-12-18T03:25:18.884Z,21.05
2022-12-18T03:28:09.528Z,19.77
2022-12-18T03:30:59.805Z,18.17
2022-12-18T03:33:58.718Z,20.27
2022-12-18T03:36:51.788Z,19.90
2022-12-18T03:39:38.758Z,20.95
2022-12-18T03:43:03.958Z,20.40
2022-12-18T03:46:12.321Z,21.48
2022-12-18T03:49:06.234Z,20.02
2022-12-18T03:52:15.329Z,21.55
2022-12-18T03:55:02.349Z,24.13
2022-12-18T03:57:49.558Z,21.88
2022-12-18T04:00:35.712Z,20.90
2022-12-18T04:03:29.744Z,20.37
2022-12-18T04:06:17.491Z,21.10
2022-12-18T04:09:04.698Z,21.15
2022-12-18T04:11:53.182Z,22.55
2022-12-18T04:14:38.894Z,21.25
2022-12-18T04:17:27.273Z,22.25
2022-12-18T04:20:12.627Z,20.92
2022-12-18T04:23:01.663Z,20.25
2022-12-18T04:25:48.395Z,22.45
2022-12-18T04:28:40.771Z,20.35
2022-12-18T04:31:26.476Z,21.13
2022-12-18T04:34:12.366Z,19.73
2022-12-18T04:37:03.543Z,19.33
2022-12-18T04:39:49.566Z,19.23
2022-12-18T04:42:42.600Z,19.02
2022-12-18T04:45:27.979Z,19.05
2022-12-18T04:48:13.315Z,20.08
2022-12-18T04:50:58.880Z,19.80
2022-12-18T04:53:44.335Z,21.80
2022-12-18T04:56:31.258Z,21.70
2022-12-18T04:59:16.679Z,20.38
2022-12-18T05:02:02.012Z,19.13
2022-12-18T05:04:47.349Z,19.92
2022-12-18T05:07:32.975Z,19.92
2022-12-18T05:10:18.399Z,19.73
2022-12-18T05:13:04.980Z,21.80
2022-12-18T05:15:53.457Z,20.73
2022-12-18T05:18:38.953Z,20.45
2022-12-18T05:21:24.304Z,22.67
2022-12-18T05:24:09.408Z,21.02
2022-12-18T05:26:54.876Z,20.67
2022-12-18T05:29:40.675Z,19.80
2022-12-18T05:32:25.825Z,20.80
2022-12-18T05:35:12.056Z,22.77
2022-12-18T05:37:57.187Z,21.50
2022-12-18T05:40:44.480Z,21.23
2022-12-18T05:43:29.904Z,23.15
2022-12-18T05:46:18.459Z,22.83
2022-12-18T05:49:03.822Z,23.23
2022-12-18T05:51:49.303Z,21.63
2022-12-18T05:54:34.885Z,20.80
2022-12-18T05:57:20.883Z,20.30
2022-12-18T06:00:06.620Z,21.17
2022-12-18T06:02:57.600Z,21.50
2022-12-18T06:05:46.123Z,23.35
2022-12-18T06:08:31.591Z,21.85
2022-12-18T06:11:24.705Z,20.73
2022-12-18T06:14:11.279Z,21.73
2022-12-18T06:16:56.651Z,19.92
2022-12-18T06:19:41.945Z,19.92
2022-12-18T06:22:27.377Z,19.05
2022-12-18T06:25:12.815Z,19.08
2022-12-18T06:27:58.165Z,18.63
2022-12-18T06:30:49.025Z,18.23
2022-12-18T06:33:35.395Z,18.67
2022-12-18T06:36:21.861Z,17.55
2022-12-18T06:39:07.170Z,18.17
2022-12-18T06:41:53.272Z,18.58
2022-12-18T06:44:38.730Z,18.05
2022-12-18T06:47:24.112Z,18.52
2022-12-18T06:50:09.954Z,17.38
2022-12-18T06:52:55.221Z,17.80
2022-12-18T06:55:41.359Z,16.38
2022-12-18T06:58:27.687Z,15.52
2022-12-18T07:01:14.221Z,16.88
2022-12-18T07:04:00.259Z,15.43
2022-12-18T07:06:45.691Z,16.15
2022-12-18T07:09:31.194Z,15.40
2022-12-18T07:12:16.815Z,15.15
2022-12-18T07:15:02.221Z,15.23
2022-12-18T07:17:47.942Z,15.90
2022-12-18T07:20:33.207Z,14.57
2022-12-18T07:23:18.575Z,15.38
2022-12-18T07:26:06.320Z,14.40
2022-12-18T07:28:55.543Z,15.88
2022-12-18T07:31:40.832Z,15.52
2022-12-18T07:34:26.436Z,14.05
2022-12-18T07:37:11.762Z,14.68
2022-12-18T07:39:57.344Z,14.75
2022-12-18T07:42:42.683Z,13.80
2022-12-18T07:45:28.252Z,12.73
2022-12-18T07:48:14.033Z,14.18
2022-12-18T07:51:05.211Z,13.23
2022-12-18T07:53:52.537Z,13.82
2022-12-18T07:56:37.762Z,13.88
2022-12-18T07:59:23.347Z,13.93
2022-12-18T08:02:09.130Z,14.02
2022-12-18T08:04:54.939Z,13.50
2022-12-18T08:07:40.487Z,13.20
2022-12-18T08:10:26.109Z,13.27
2022-12-18T08:13:11.879Z,13.23
2022-12-18T08:16:10.475Z,11.73
2022-12-18T08:18:56.202Z,13.00
2022-12-18T08:21:41.584Z,12.45
2022-12-18T08:24:27.190Z,12.07
2022-12-18T08:27:29.047Z,13.93
2022-12-18T08:30:15.159Z,12.25
2022-12-18T08:33:00.870Z,12.82
2022-12-18T08:35:46.350Z,12.88
2022-12-18T08:38:33.278Z,12.10
2022-12-18T08:41:19.490Z,11.93
2022-12-18T08:44:23.449Z,11.32
2022-12-18T08:47:09.399Z,11.07
2022-12-18T08:49:55.046Z,11.85
2022-12-18T08:52:40.568Z,12.02
2022-12-18T08:55:25.958Z,11.88
2022-12-18T08:58:11.421Z,12.27
2022-12-18T09:01:08.545Z,11.60
2022-12-18T09:03:53.843Z,12.30
2022-12-18T09:06:39.443Z,12.25
2022-12-18T09:09:24.878Z,13.32
2022-12-18T09:12:10.440Z,11.93
2022-12-18T09:14:57.268Z,11.43
2022-12-18T09:17:42.524Z,12.02
2022-12-18T09:20:29.267Z,13.02
2022-12-18T09:23:14.878Z,11.73
2022-12-18T09:26:00.749Z,12.57
2022-12-18T09:28:46.281Z,13.15
2022-12-18T09:31:31.714Z,12.88
2022-12-18T09:34:17.920Z,12.70
2022-12-18T09:37:03.316Z,12.30
2022-12-18T09:39:48.604Z,12.48
2022-12-18T09:42:34.010Z,13.73
2022-12-18T09:45:19.642Z,13.10
2022-12-18T09:48:06.395Z,14.20
2022-12-18T09:50:54.351Z,13.18
2022-12-18T09:53:41.854Z,12.65
2022-12-18T09:56:29.703Z,12.90
2022-12-18T09:59:37.951Z,12.35
2022-12-18T10:02:26.312Z,12.60
2022-12-18T10:05:17.931Z,13.27
2022-12-18T10:08:34.700Z,12.80
2022-12-18T10:11:53.243Z,11.70
2022-12-18T10:14:50.678Z,11.98
2022-12-18T10:17:57.089Z,12.15
2022-12-18T10:21:07.971Z,12.13
2022-12-18T10:24:31.605Z,13.13
2022-12-18T10:27:20.448Z,12.70
2022-12-18T10:30:15.587Z,10.90
2022-12-18T10:33:04.418Z,10.98
2022-12-18T10:35:55.203Z,12.15
2022-12-18T10:38:41.235Z,11.10
2022-12-18T10:41:29.469Z,11.30
2022-12-18T10:44:28.193Z,11.75
2022-12-18T10:47:16.945Z,11.43
2022-12-18T10:50:02.304Z,11.82
2022-12-18T10:52:56.199Z,12.23
2022-12-18T10:55:46.736Z,12.52
2022-12-18T10:58:38.486Z,12.50
2022-12-18T11:01:23.653Z,12.88
2022-12-18T11:04:10.216Z,11.38
2022-12-18T11:06:56.432Z,13.15
2022-12-18T11:09:42.308Z,11.73
2022-12-18T11:12:29.553Z,11.95
2022-12-18T11:15:30.906Z,11.93
2022-12-18T11:18:20.057Z,11.98
2022-12-18T11:21:10.388Z,11.80
2022-12-18T11:23:55.535Z,10.63
2022-12-18T11:26:44.373Z,11.18
2022-12-18T11:29:35.808Z,10.68
2022-12-18T11:32:35.715Z,11.77
2022-12-18T11:35:46.362Z,11.32
2022-12-18T11:38:43.258Z,11.43
2022-12-18T11:42:01.968Z,12.27
2022-12-18T11:45:21.358Z,11.98
2022-12-18T11:48:33.747Z,12.65
2022-12-18T11:51:33.011Z,11.85
2022-12-18T11:54:18.483Z,12.07
2022-12-18T11:57:35.145Z,12.10
2022-12-18T12:00:21.705Z,12.10
2022-12-18T12:03:41.652Z,11.65
2022-12-18T12:06:41.189Z,11.25
2022-12-18T12:09:41.991Z,11.77
2022-12-18T12:12:50.104Z,12.10
2022-12-18T12:15:43.820Z,11.50
2022-12-18T12:18:38.043Z,11.18
2022-12-18T12:21:42.663Z,11.45
2022-12-18T12:24:53.205Z,12.30
2022-12-18T12:28:03.083Z,11.68
2022-12-18T12:31:14.289Z,11.40
2022-12-18T12:34:08.862Z,11.35
2022-12-18T12:37:31.799Z,11.82
2022-12-18T12:40:50.314Z,11.98
2022-12-18T12:43:33.630Z,11.38
2022-12-18T12:46:23.943Z,11.48
2022-12-18T12:49:19.317Z,11.43
2022-12-18T12:52:34.065Z,11.48
2022-12-18T12:55:25.747Z,11.35
2022-12-18T12:58:27.503Z,10.88
2022-12-18T13:01:29.242Z,11.65
2022-12-18T13:04:37.295Z,10.45
2022-12-18T13:07:33.489Z,10.52
2022-12-18T13:10:23.495Z,10.73
2022-12-18T13:13:13.416Z,11.98
2022-12-18T13:16:09.069Z,11.15
2022-12-18T13:18:59.642Z,11.38
2022-12-18T13:21:55.372Z,10.90
2022-12-18T13:24:40.635Z,11.10
2022-12-18T13:27:44.220Z,11.52
2022-12-18T13:30:32.930Z,12.43
2022-12-18T13:33:18.269Z,11.40
2022-12-18T13:36:13.503Z,11.10
2022-12-18T13:39:23.893Z,12.25
2022-12-18T13:42:34.359Z,12.02
2022-12-18T13:45:43.359Z,11.10
2022-12-18T13:48:36.843Z,10.98
2022-12-18T13:51:23.139Z,11.60
2022-12-18T13:54:22.658Z,11.98
2022-12-18T13:57:36.787Z,11.10
2022-12-18T14:00:30.875Z,11.70
2022-12-18T14:03:28.882Z,11.60
2022-12-18T14:06:14.612Z,11.70
2022-12-18T14:09:00.831Z,11.38
2022-12-18T14:11:51.008Z,10.95
2022-12-18T14:14:37.842Z,11.63
2022-12-18T14:17:24.307Z,11.68
2022-12-18T14:20:16.265Z,11.20
2022-12-18T14:23:02.026Z,11.60
2022-12-18T14:25:48.126Z,11.45
2022-12-18T14:28:33.583Z,12.85
2022-12-18T14:31:24.846Z,11.88
2022-12-18T14:34:16.617Z,12.32
2022-12-18T14:37:02.065Z,12.15
2022-12-18T14:40:11.109Z,12.25
2022-12-18T14:42:56.940Z,11.93
2022-12-18T14:45:44.361Z,12.23
2022-12-18T14:48:43.823Z,11.73
2022-12-18T14:51:36.803Z,11.80
2022-12-18T14:54:23.899Z,12.40
2022-12-18T14:57:25.720Z,12.20
2022-12-18T15:00:19.687Z,12.20
2022-12-18T15:03:09.333Z,12.02
2022-12-18T15:05:55.135Z,12.15
2022-12-18T15:08:40.369Z,12.60
2022-12-18T15:11:35.656Z,13.00
2022-12-18T15:14:44.305Z,12.13
2022-12-18T15:17:29.950Z,12.10
2022-12-18T15:20:15.593Z,12.70
2022-12-18T15:23:00.723Z,13.30
2022-12-18T15:25:47.706Z,12.43
2022-12-18T15:28:35.816Z,12.18
2022-12-18T15:31:25.313Z,13.38
2022-12-18T15:34:24.540Z,13.55
2022-12-18T15:37:09.630Z,13.00
2022-12-18T15:39:55.558Z,12.93
2022-12-18T15:42:59.983Z,12.93
2022-12-18T15:45:45.402Z,12.88
2022-12-18T15:48:30.955Z,13.55
2022-12-18T15:51:37.703Z,13.48
2022-12-18T15:54:43.050Z,13.35
2022-12-18T15:57:28.384Z,13.73
2022-12-18T16:00:14.258Z,13.70
2022-12-18T16:02:59.958Z,12.20
2022-12-18T16:05:45.552Z,12.63
2022-12-18T16:08:31.536Z,13.50
2022-12-18T16:11:38.909Z,12.82
2022-12-18T16:14:29.513Z,13.65
2022-12-18T16:17:15.962Z,13.52
2022-12-18T16:20:01.309Z,13.25
2022-12-18T16:22:47.288Z,13.77
2022-12-18T16:25:32.910Z,13.93
2022-12-18T16:28:18.310Z,13.75
2022-12-18T16:31:03.693Z,13.68
2022-12-18T16:33:49.166Z,14.13
2022-12-18T16:36:35.167Z,14.00
2022-12-18T16:39:21.248Z,14.00
2022-12-18T16:42:19.885Z,13.57
2022-12-18T16:45:07.426Z,14.02
2022-12-18T16:47:52.824Z,14.63
2022-12-18T16:50:38.381Z,13.98
2022-12-18T16:53:23.828Z,15.18
2022-12-18T16:56:09.466Z,13.85
2022-12-18T16:58:57.654Z,14.70
2022-12-18T17:01:43.068Z,14.40
2022-12-18T17:04:28.603Z,14.85
2022-12-18T17:07:14.528Z,15.35
2022-12-18T17:10:00.029Z,15.15
2022-12-18T17:12:45.539Z,15.48
2022-12-18T17:15:30.892Z,15.80
2022-12-18T17:18:16.411Z,15.30
2022-12-18T17:21:04.035Z,15.23
2022-12-18T17:23:49.097Z,15.95
2022-12-18T17:26:34.539Z,15.93
2022-12-18T17:29:21.248Z,15.68
2022-12-18T17:32:08.957Z,16.52
2022-12-18T17:34:54.542Z,15.77
2022-12-18T17:37:40.155Z,15.23
2022-12-18T17:40:26.415Z,15.40
2022-12-18T17:43:12.055Z,15.90
2022-12-18T17:46:05.509Z,15.85
2022-12-18T17:48:56.168Z,14.88
2022-12-18T17:51:42.827Z,16.08
2022-12-18T17:54:28.536Z,16.58
2022-12-18T17:57:14.540Z,16.27
2022-12-18T17:59:59.950Z,15.80
2022-12-18T18:02:45.861Z,16.73
2022-12-18T18:05:31.436Z,15.90
2022-12-18T18:08:16.851Z,14.18
2022-12-18T18:11:30.761Z,15.43
2022-12-18T18:14:18.579Z,16.13
2022-12-18T18:17:04.755Z,16.55
2022-12-18T18:19:50.440Z,16.77
2022-12-18T18:22:36.089Z,16.38
2022-12-18T18:25:21.079Z,16.83
2022-12-18T18:28:08.107Z,17.08
2022-12-18T18:30:53.665Z,16.63
2022-12-18T18:33:39.351Z,16.73
2022-12-18T18:36:25.110Z,15.45
2022-12-18T18:39:10.532Z,16.48
2022-12-18T18:41:55.730Z,15.70
2022-12-18T18:44:45.763Z,15.60
2022-12-18T18:47:34.224Z,16.45
2022-12-18T18:50:20.007Z,15.98
2022-12-18T18:53:05.410Z,15.88
2022-12-18T18:56:16.574Z,16.52
2022-12-18T18:58:56.417Z,17.08
2022-12-18T19:01:42.072Z,16.83
2022-12-18T19:04:28.954Z,16.17
2022-12-18T19:07:25.602Z,15.93
2022-12-18T19:10:15.786Z,16.95
2022-12-18T19:13:19.651Z,15.88
2022-12-18T19:16:07.957Z,16.23
2022-12-18T19:18:59.973Z,16.33
2022-12-18T19:21:47.780Z,16.45
2022-12-18T19:24:33.199Z,16.52
2022-12-18T19:27:18.564Z,16.70
2022-12-18T19:30:04.415Z,17.35
2022-12-18T19:32:49.520Z,15.82
2022-12-18T19:35:35.054Z,16.50
2022-12-18T19:38:20.604Z,17.23
2022-12-18T19:41:07.475Z,16.17
2022-12-18T19:43:53.694Z,18.10
2022-12-18T19:46:41.991Z,16.80
2022-12-18T19:49:27.721Z,17.60
2022-12-18T19:52:16.240Z,16.73
2022-12-18T19:55:02.186Z,18.33
2022-12-18T19:57:47.334Z,19.10
2022-12-18T20:00:32.627Z,17.65
2022-12-18T20:03:25.939Z,18.05
2022-12-18T20:06:26.611Z,18.50
2022-12-18T20:09:11.783Z,17.88
2022-12-18T20:11:57.408Z,18.83
2022-12-18T20:14:42.725Z,19.00
2022-12-18T20:17:28.539Z,18.63
2022-12-18T20:20:15.520Z,19.88
2022-12-18T20:23:01.181Z,18.60
2022-12-18T20:25:46.776Z,19.05
2022-12-18T20:28:32.024Z,20.08
2022-12-18T20:31:17.446Z,19.58
2022-12-18T20:34:04.837Z,20.25
2022-12-18T20:36:50.479Z,19.45
2022-12-18T20:39:37.044Z,20.27
2022-12-18T20:42:22.624Z,22.10
2022-12-18T20:45:08.286Z,20.67
2022-12-18T20:47:56.795Z,20.45
2022-12-18T20:50:43.313Z,21.45
2022-12-18T20:53:29.098Z,21.38
2022-12-18T20:56:21.394Z,20.48
2022-12-18T20:59:07.273Z,21.30
2022-12-18T21:01:55.720Z,20.77
2022-12-18T21:04:41.286Z,22.17
2022-12-18T21:07:27.436Z,21.73
2022-12-18T21:10:12.898Z,21.50
2022-12-18T21:13:01.529Z,22.20
2022-12-18T21:15:52.968Z,21.55
2022-12-18T21:18:39.498Z,21.25
2022-12-18T21:21:26.856Z,21.95
2022-12-18T21:24:13.048Z,21.67
2022-12-18T21:27:01.839Z,22.63
2022-12-18T21:29:47.374Z,22.13
2022-12-18T21:32:33.550Z,21.42
2022-12-18T21:35:19.302Z,22.88
2022-12-18T21:38:06.314Z,23.00
2022-12-18T21:40:51.607Z,22.85
2022-12-18T21:43:56.127Z,23.25
2022-12-18T21:46:44.182Z,23.38
2022-12-18T21:49:29.678Z,23.52
2022-12-18T21:52:15.228Z,23.45
2022-12-18T21:55:09.426Z,23.75
2022-12-18T21:57:55.851Z,23.75
2022-12-18T22:00:45.650Z,23.60
2022-12-18T22:03:34.204Z,24.95
2022-12-18T22:06:20.120Z,24.00
2022-12-18T22:09:06.114Z,24.00
2022-12-18T22:11:52.075Z,25.52
2022-12-18T22:14:37.604Z,23.90
2022-12-18T22:17:23.011Z,24.92
2022-12-18T22:20:10.407Z,25.90
2022-12-18T22:22:55.735Z,25.40
2022-12-18T22:25:41.155Z,25.27
2022-12-18T22:28:45.112Z,26.05
2022-12-18T22:31:30.395Z,25.83
2022-12-18T22:34:19.368Z,26.38
2022-12-18T22:37:07.463Z,26.87
2022-12-18T22:39:53.125Z,27.63
2022-12-18T22:42:38.432Z,27.05
2022-12-18T22:45:26.090Z,27.42
2022-12-18T22:48:11.851Z,27.13
2022-12-18T22:50:59.713Z,28.45
2022-12-18T22:53:45.718Z,27.95
2022-12-18T22:56:33.667Z,28.40
2022-12-18T22:59:21.607Z,29.13
2022-12-18T23:02:06.638Z,28.35
2022-12-18T23:04:52.005Z,27.73
2022-12-18T23:07:37.682Z,27.05
2022-12-18T23:10:23.183Z,28.20
2022-12-18T23:13:08.700Z,27.98
2022-12-18T23:15:55.006Z,28.73
2022-12-18T23:18:41.606Z,28.60
2022-12-18T23:21:27.019Z,27.15
2022-12-18T23:24:13.021Z,26.17
2022-12-18T23:26:58.656Z,27.15
2022-12-18T23:29:44.048Z,27.83
2022-12-18T23:32:31.103Z,29.52
2022-12-18T23:35:18.722Z,29.45
2022-12-18T23:38:04.231Z,28.40
2022-12-18T23:40:49.658Z,28.08
2022-12-18T23:43:39.123Z,28.08
2022-12-18T23:46:29.449Z,28.15
2022-12-18T23:49:15.019Z,27.80
2022-12-18T23:52:00.440Z,27.42
2022-12-18T23:54:46.037Z,28.15
2022-12-18T23:57:31.371Z,29.05
